sensor_id;sensor_type;location;lat;lon;timestamp;pressure;altitude;pressure_sealevel;temperature;humidity
37066;BME280;22981;43.080;25.550;2023-01-31T00:01:40;99118.65;;;-0.95;76.81
37066;BME280;22981;43.080;25.550;2023-01-31T00:04:09;99109.13;;;-0.96;76.93
37066;BME280;22981;43.080;25.550;2023-01-31T00:06:43;99111.76;;;-0.96;76.94
37066;BME280;22981;43.080;25.550;2023-01-31T00:09:13;99117.34;;;-0.95;77.02
37066;BME280;22981;43.080;25.550;2023-01-31T00:11:41;99108.66;;;-0.91;77.01
37066;BME280;22981;43.080;25.550;2023-01-31T00:14:09;99104.75;;;-0.87;76.96
37066;BME280;22981;43.080;25.550;2023-01-31T00:16:37;99096.56;;;-0.84;76.89
37066;BME280;22981;43.080;25.550;2023-01-31T00:19:04;99096.91;;;-0.79;76.83
37066;BME280;22981;43.080;25.550;2023-01-31T00:21:32;99094.47;;;-0.77;76.78
37066;BME280;22981;43.080;25.550;2023-01-31T00:24:00;99098.25;;;-0.75;76.77
37066;BME280;22981;43.080;25.550;2023-01-31T00:26:31;99096.11;;;-0.76;76.78
37066;BME280;22981;43.080;25.550;2023-01-31T00:29:01;99089.38;;;-0.74;76.77
37066;BME280;22981;43.080;25.550;2023-01-31T00:31:31;99090.53;;;-0.77;76.80
37066;BME280;22981;43.080;25.550;2023-01-31T00:33:59;99094.80;;;-0.76;76.87
37066;BME280;22981;43.080;25.550;2023-01-31T00:36:29;99095.43;;;-0.78;76.83
37066;BME280;22981;43.080;25.550;2023-01-31T00:38:58;99094.45;;;-0.81;76.86
37066;BME280;22981;43.080;25.550;2023-01-31T00:41:27;99095.90;;;-0.82;76.93
37066;BME280;22981;43.080;25.550;2023-01-31T00:43:56;99087.06;;;-0.81;76.95
37066;BME280;22981;43.080;25.550;2023-01-31T00:46:24;99095.10;;;-0.79;76.94
37066;BME280;22981;43.080;25.550;2023-01-31T00:48:51;99096.42;;;-0.79;76.96
37066;BME280;22981;43.080;25.550;2023-01-31T00:51:20;99097.10;;;-0.77;76.96
37066;BME280;22981;43.080;25.550;2023-01-31T00:53:49;99105.15;;;-0.74;76.94
37066;BME280;22981;43.080;25.550;2023-01-31T00:56:19;99107.47;;;-0.71;76.95
37066;BME280;22981;43.080;25.550;2023-01-31T00:58:48;99110.09;;;-0.71;76.86
37066;BME280;22981;43.080;25.550;2023-01-31T01:01:24;99108.10;;;-0.73;76.89
37066;BME280;22981;43.080;25.550;2023-01-31T01:03:50;99113.72;;;-0.72;76.95
37066;BME280;22981;43.080;25.550;2023-01-31T01:06:18;99117.96;;;-0.75;76.91
37066;BME280;22981;43.080;25.550;2023-01-31T01:08:47;99122.70;;;-0.79;76.99
37066;BME280;22981;43.080;25.550;2023-01-31T01:11:17;99120.59;;;-0.75;77.07
37066;BME280;22981;43.080;25.550;2023-01-31T01:13:45;99116.18;;;-0.70;77.08
37066;BME280;22981;43.080;25.550;2023-01-31T01:16:23;99114.58;;;-0.63;77.08
37066;BME280;22981;43.080;25.550;2023-01-31T01:18:50;99115.45;;;-0.55;77.00
37066;BME280;22981;43.080;25.550;2023-01-31T01:21:22;99113.20;;;-0.41;76.67
37066;BME280;22981;43.080;25.550;2023-01-31T01:23:51;99120.47;;;-0.31;76.27
37066;BME280;22981;43.080;25.550;2023-01-31T01:26:26;99117.80;;;-0.39;76.15
37066;BME280;22981;43.080;25.550;2023-01-31T01:28:51;99121.24;;;-0.47;76.39
37066;BME280;22981;43.080;25.550;2023-01-31T01:31:20;99126.14;;;-0.48;76.57
37066;BME280;22981;43.080;25.550;2023-01-31T01:33:48;99129.45;;;-0.46;76.66
37066;BME280;22981;43.080;25.550;2023-01-31T01:36:17;99122.39;;;-0.45;76.71
37066;BME280;22981;43.080;25.550;2023-01-31T01:38:47;99127.83;;;-0.39;76.72
37066;BME280;22981;43.080;25.550;2023-01-31T01:41:15;99134.45;;;-0.27;76.54
37066;BME280;22981;43.080;25.550;2023-01-31T01:46:32;99122.53;;;-0.05;76.02
37066;BME280;22981;43.080;25.550;2023-01-31T01:49:04;99118.80;;;0.06;75.82
37066;BME280;22981;43.080;25.550;2023-01-31T01:51:33;99112.55;;;0.11;75.68
37066;BME280;22981;43.080;25.550;2023-01-31T01:54:03;99104.98;;;0.16;75.72
37066;BME280;22981;43.080;25.550;2023-01-31T01:56:35;99108.30;;;0.18;75.83
37066;BME280;22981;43.080;25.550;2023-01-31T01:59:06;99109.30;;;0.21;76.03
37066;BME280;22981;43.080;25.550;2023-01-31T02:01:35;99099.91;;;0.23;76.24
37066;BME280;22981;43.080;25.550;2023-01-31T02:04:06;99098.91;;;0.24;76.45
37066;BME280;22981;43.080;25.550;2023-01-31T02:06:34;99096.47;;;0.27;76.67
37066;BME280;22981;43.080;25.550;2023-01-31T02:09:04;99092.84;;;0.28;76.79
37066;BME280;22981;43.080;25.550;2023-01-31T02:11:32;99098.61;;;0.31;76.94
37066;BME280;22981;43.080;25.550;2023-01-31T02:14:03;99102.20;;;0.34;77.05
37066;BME280;22981;43.080;25.550;2023-01-31T02:16:30;99098.61;;;0.35;77.20
37066;BME280;22981;43.080;25.550;2023-01-31T02:18:58;99094.81;;;0.38;77.28
37066;BME280;22981;43.080;25.550;2023-01-31T02:22:03;99099.44;;;0.40;77.41
37066;BME280;22981;43.080;25.550;2023-01-31T02:27:47;99093.00;;;0.42;77.46
37066;BME280;22981;43.080;25.550;2023-01-31T02:33:19;99077.05;;;0.44;77.34
37066;BME280;22981;43.080;25.550;2023-01-31T02:35:55;99089.05;;;0.46;77.37
37066;BME280;22981;43.080;25.550;2023-01-31T02:46:35;99081.83;;;0.53;77.59
37066;BME280;22981;43.080;25.550;2023-01-31T02:49:13;99082.33;;;0.52;77.63
37066;BME280;22981;43.080;25.550;2023-01-31T02:51:42;99082.16;;;0.54;77.69
37066;BME280;22981;43.080;25.550;2023-01-31T02:54:14;99072.26;;;0.56;77.69
37066;BME280;22981;43.080;25.550;2023-01-31T02:56:43;99064.21;;;0.57;77.66
37066;BME280;22981;43.080;25.550;2023-01-31T02:59:22;99069.16;;;0.60;77.62
37066;BME280;22981;43.080;25.550;2023-01-31T03:01:58;99065.85;;;0.62;77.61
37066;BME280;22981;43.080;25.550;2023-01-31T03:04:30;99065.20;;;0.64;77.57
37066;BME280;22981;43.080;25.550;2023-01-31T03:07:04;99071.44;;;0.63;77.47
37066;BME280;22981;43.080;25.550;2023-01-31T03:09:35;99072.61;;;0.65;77.50
37066;BME280;22981;43.080;25.550;2023-01-31T03:14:41;99084.61;;;0.67;77.46
37066;BME280;22981;43.080;25.550;2023-01-31T03:17:22;99086.11;;;0.70;77.33
37066;BME280;22981;43.080;25.550;2023-01-31T03:20:09;99085.44;;;0.72;77.24
37066;BME280;22981;43.080;25.550;2023-01-31T03:22:47;99092.69;;;0.74;77.09
37066;BME280;22981;43.080;25.550;2023-01-31T03:25:18;99092.69;;;0.74;76.99
37066;BME280;22981;43.080;25.550;2023-01-31T03:27:49;99086.25;;;0.77;76.87
37066;BME280;22981;43.080;25.550;2023-01-31T03:30:26;99088.23;;;0.79;76.71
37066;BME280;22981;43.080;25.550;2023-01-31T03:32:57;99091.52;;;0.81;76.51
37066;BME280;22981;43.080;25.550;2023-01-31T03:35:26;99094.01;;;0.82;76.33
37066;BME280;22981;43.080;25.550;2023-01-31T03:38:16;99101.73;;;0.84;76.16
37066;BME280;22981;43.080;25.550;2023-01-31T03:40:51;99100.73;;;0.85;75.65
37066;BME280;22981;43.080;25.550;2023-01-31T03:46:04;99105.37;;;0.87;75.68
37066;BME280;22981;43.080;25.550;2023-01-31T03:48:32;99107.00;;;0.88;75.41
37066;BME280;22981;43.080;25.550;2023-01-31T03:51:03;99107.65;;;0.90;75.02
37066;BME280;22981;43.080;25.550;2023-01-31T03:53:37;99107.32;;;0.93;74.63
37066;BME280;22981;43.080;25.550;2023-01-31T03:56:26;99103.37;;;0.97;74.18
37066;BME280;22981;43.080;25.550;2023-01-31T03:58:59;99108.63;;;1.01;73.58
37066;BME280;22981;43.080;25.550;2023-01-31T04:01:27;99110.45;;;1.05;73.00
37066;BME280;22981;43.080;25.550;2023-01-31T04:04:11;99114.22;;;1.06;72.59
37066;BME280;22981;43.080;25.550;2023-01-31T04:06:39;99124.45;;;1.09;72.29
37066;BME280;22981;43.080;25.550;2023-01-31T04:09:07;99120.31;;;1.11;72.09
37066;BME280;22981;43.080;25.550;2023-01-31T04:11:37;99115.39;;;1.12;71.72
37066;BME280;22981;43.080;25.550;2023-01-31T04:14:05;99121.62;;;1.15;71.46
37066;BME280;22981;43.080;25.550;2023-01-31T04:16:33;99122.44;;;1.15;71.28
37066;BME280;22981;43.080;25.550;2023-01-31T04:19:00;99130.20;;;1.17;71.10
37066;BME280;22981;43.080;25.550;2023-01-31T04:21:28;99128.21;;;1.19;70.83
37066;BME280;22981;43.080;25.550;2023-01-31T04:23:55;99125.42;;;1.20;70.80
37066;BME280;22981;43.080;25.550;2023-01-31T04:26:23;99121.29;;;1.22;70.78
37066;BME280;22981;43.080;25.550;2023-01-31T04:28:51;99126.23;;;1.25;70.69
37066;BME280;22981;43.080;25.550;2023-01-31T04:31:18;99120.14;;;1.29;70.69
37066;BME280;22981;43.080;25.550;2023-01-31T04:33:46;99122.41;;;1.32;70.63
37066;BME280;22981;43.080;25.550;2023-01-31T04:36:13;99122.41;;;1.32;70.63
37066;BME280;22981;43.080;25.550;2023-01-31T04:38:41;99120.09;;;1.33;70.56
37066;BME280;22981;43.080;25.550;2023-01-31T04:41:09;99126.86;;;1.35;70.61
37066;BME280;22981;43.080;25.550;2023-01-31T04:43:36;99128.68;;;1.35;70.69
37066;BME280;22981;43.080;25.550;2023-01-31T04:46:04;99129.00;;;1.36;70.60
37066;BME280;22981;43.080;25.550;2023-01-31T04:48:31;99132.63;;;1.39;70.49
37066;BME280;22981;43.080;25.550;2023-01-31T04:50:59;99131.13;;;1.40;70.51
37066;BME280;22981;43.080;25.550;2023-01-31T04:53:26;99135.44;;;1.41;70.59
37066;BME280;22981;43.080;25.550;2023-01-31T04:55:54;99134.12;;;1.41;70.60
37066;BME280;22981;43.080;25.550;2023-01-31T04:58:22;99134.94;;;1.42;70.53
37066;BME280;22981;43.080;25.550;2023-01-31T05:00:52;99143.34;;;1.41;70.58
37066;BME280;22981;43.080;25.550;2023-01-31T05:03:19;99144.98;;;1.42;70.50
37066;BME280;22981;43.080;25.550;2023-01-31T05:05:50;99155.36;;;1.44;70.53
37066;BME280;22981;43.080;25.550;2023-01-31T05:08:18;99155.18;;;1.45;70.44
37066;BME280;22981;43.080;25.550;2023-01-31T05:10:45;99142.66;;;1.47;70.40
37066;BME280;22981;43.080;25.550;2023-01-31T05:13:13;99139.02;;;1.48;70.33
37066;BME280;22981;43.080;25.550;2023-01-31T05:15:41;99139.02;;;1.48;70.33
37066;BME280;22981;43.080;25.550;2023-01-31T05:18:08;99153.03;;;1.49;70.42
37066;BME280;22981;43.080;25.550;2023-01-31T05:20:37;99149.89;;;1.49;70.46
37066;BME280;22981;43.080;25.550;2023-01-31T05:23:06;99153.53;;;1.48;70.51
37066;BME280;22981;43.080;25.550;2023-01-31T05:25:35;99168.05;;;1.48;70.57
37066;BME280;22981;43.080;25.550;2023-01-31T05:28:04;99166.72;;;1.48;70.46
37066;BME280;22981;43.080;25.550;2023-01-31T05:30:31;99170.85;;;1.51;70.45
37066;BME280;22981;43.080;25.550;2023-01-31T05:32:59;99176.45;;;1.52;70.46
37066;BME280;22981;43.080;25.550;2023-01-31T05:35:27;99169.03;;;1.52;70.50
37066;BME280;22981;43.080;25.550;2023-01-31T05:37:54;99175.95;;;1.53;70.56
37066;BME280;22981;43.080;25.550;2023-01-31T05:40:22;99175.95;;;1.53;70.56
37066;BME280;22981;43.080;25.550;2023-01-31T05:42:54;99172.49;;;1.52;70.66
37066;BME280;22981;43.080;25.550;2023-01-31T05:45:22;99171.35;;;1.50;70.66
37066;BME280;22981;43.080;25.550;2023-01-31T05:47:50;99160.81;;;1.46;70.47
37066;BME280;22981;43.080;25.550;2023-01-31T05:50:17;99169.86;;;1.48;70.69
37066;BME280;22981;43.080;25.550;2023-01-31T05:52:53;99169.86;;;1.48;70.69
37066;BME280;22981;43.080;25.550;2023-01-31T05:55:22;99188.15;;;1.49;70.99
37066;BME280;22981;43.080;25.550;2023-01-31T05:57:51;99188.15;;;1.49;70.99
37066;BME280;22981;43.080;25.550;2023-01-31T06:00:19;99179.27;;;1.50;70.98
37066;BME280;22981;43.080;25.550;2023-01-31T06:02:47;99184.36;;;1.52;70.96
37066;BME280;22981;43.080;25.550;2023-01-31T06:05:14;99192.91;;;1.54;70.98
37066;BME280;22981;43.080;25.550;2023-01-31T06:07:42;99193.77;;;1.55;71.03
37066;BME280;22981;43.080;25.550;2023-01-31T06:10:10;99193.27;;;1.55;71.06
37066;BME280;22981;43.080;25.550;2023-01-31T06:12:38;99195.91;;;1.55;71.12
37066;BME280;22981;43.080;25.550;2023-01-31T06:15:06;99188.81;;;1.56;71.11
37066;BME280;22981;43.080;25.550;2023-01-31T06:17:34;99194.23;;;1.58;71.23
37066;BME280;22981;43.080;25.550;2023-01-31T06:20:03;99194.23;;;1.58;71.23
37066;BME280;22981;43.080;25.550;2023-01-31T06:22:30;99198.54;;;1.59;71.09
37066;BME280;22981;43.080;25.550;2023-01-31T06:24:58;99198.36;;;1.61;71.10
37066;BME280;22981;43.080;25.550;2023-01-31T06:27:25;99210.23;;;1.61;71.13
37066;BME280;22981;43.080;25.550;2023-01-31T06:29:53;99212.38;;;1.61;71.17
37066;BME280;22981;43.080;25.550;2023-01-31T06:32:20;99211.38;;;1.62;71.09
37066;BME280;22981;43.080;25.550;2023-01-31T06:34:48;99217.00;;;1.63;71.12
37066;BME280;22981;43.080;25.550;2023-01-31T06:37:15;99209.41;;;1.64;71.12
37066;BME280;22981;43.080;25.550;2023-01-31T06:39:43;99205.27;;;1.66;71.09
37066;BME280;22981;43.080;25.550;2023-01-31T06:42:10;99212.03;;;1.68;71.04
37066;BME280;22981;43.080;25.550;2023-01-31T06:44:38;99208.22;;;1.67;70.98
37066;BME280;22981;43.080;25.550;2023-01-31T06:47:05;99202.30;;;1.69;70.91
37066;BME280;22981;43.080;25.550;2023-01-31T06:49:33;99197.66;;;1.71;70.86
37066;BME280;22981;43.080;25.550;2023-01-31T06:52:01;99195.50;;;1.79;70.84
37066;BME280;22981;43.080;25.550;2023-01-31T06:54:28;99195.50;;;1.79;70.84
37066;BME280;22981;43.080;25.550;2023-01-31T06:56:56;99195.00;;;1.79;70.88
37066;BME280;22981;43.080;25.550;2023-01-31T06:59:23;99188.58;;;1.82;70.83
37066;BME280;22981;43.080;25.550;2023-01-31T07:01:51;99196.81;;;1.83;70.80
37066;BME280;22981;43.080;25.550;2023-01-31T07:04:18;99214.45;;;1.86;70.77
37066;BME280;22981;43.080;25.550;2023-01-31T07:06:51;99221.23;;;1.89;70.79
37066;BME280;22981;43.080;25.550;2023-01-31T07:09:25;99237.70;;;1.91;70.76
37066;BME280;22981;43.080;25.550;2023-01-31T07:11:49;99236.70;;;1.92;70.73
37066;BME280;22981;43.080;25.550;2023-01-31T07:14:17;99238.84;;;1.92;70.71
37066;BME280;22981;43.080;25.550;2023-01-31T07:16:49;99254.36;;;1.91;70.56
37066;BME280;22981;43.080;25.550;2023-01-31T07:19:16;99254.36;;;1.91;70.56
37066;BME280;22981;43.080;25.550;2023-01-31T07:21:44;99269.87;;;1.94;70.94
37066;BME280;22981;43.080;25.550;2023-01-31T07:24:13;99269.87;;;1.94;70.94
37066;BME280;22981;43.080;25.550;2023-01-31T07:26:41;99260.13;;;1.95;70.77
37066;BME280;22981;43.080;25.550;2023-01-31T07:29:09;99262.77;;;1.95;70.81
37066;BME280;22981;43.080;25.550;2023-01-31T07:31:38;99264.91;;;1.95;70.84
37066;BME280;22981;43.080;25.550;2023-01-31T07:34:05;99265.24;;;1.92;70.76
37066;BME280;22981;43.080;25.550;2023-01-31T07:36:33;99268.23;;;1.97;70.78
37066;BME280;22981;43.080;25.550;2023-01-31T07:39:00;99273.00;;;1.98;70.81
37066;BME280;22981;43.080;25.550;2023-01-31T07:41:28;99279.11;;;1.98;70.86
37066;BME280;22981;43.080;25.550;2023-01-31T07:43:56;99277.28;;;1.99;70.89
37066;BME280;22981;43.080;25.550;2023-01-31T07:46:24;99263.91;;;1.96;70.85
37066;BME280;22981;43.080;25.550;2023-01-31T07:48:52;99263.75;;;2.02;70.87
37066;BME280;22981;43.080;25.550;2023-01-31T07:51:19;99263.75;;;2.02;70.87
37066;BME280;22981;43.080;25.550;2023-01-31T07:53:47;99280.91;;;2.06;70.67
37066;BME280;22981;43.080;25.550;2023-01-31T07:56:16;99267.20;;;2.11;70.58
37066;BME280;22981;43.080;25.550;2023-01-31T07:58:45;99271.14;;;2.15;70.70
37066;BME280;22981;43.080;25.550;2023-01-31T08:01:19;99269.33;;;2.15;70.54
37066;BME280;22981;43.080;25.550;2023-01-31T08:04:05;99269.33;;;2.15;70.54
37066;BME280;22981;43.080;25.550;2023-01-31T08:06:33;99265.50;;;2.18;70.46
37066;BME280;22981;43.080;25.550;2023-01-31T08:09:01;99273.41;;;2.22;70.45
37066;BME280;22981;43.080;25.550;2023-01-31T08:11:29;99282.50;;;2.23;70.44
37066;BME280;22981;43.080;25.550;2023-01-31T08:13:57;99288.27;;;2.27;70.47
37066;BME280;22981;43.080;25.550;2023-01-31T08:16:25;99282.13;;;2.31;70.50
37066;BME280;22981;43.080;25.550;2023-01-31T08:18:52;99286.44;;;2.32;70.54
37066;BME280;22981;43.080;25.550;2023-01-31T08:21:20;99291.36;;;2.35;70.53
37066;BME280;22981;43.080;25.550;2023-01-31T08:23:49;99289.39;;;2.37;70.42
37066;BME280;22981;43.080;25.550;2023-01-31T08:26:18;99294.80;;;2.39;70.42
37066;BME280;22981;43.080;25.550;2023-01-31T08:28:49;99289.70;;;2.38;70.41
37066;BME280;22981;43.080;25.550;2023-01-31T08:31:19;99286.72;;;2.45;70.39
37066;BME280;22981;43.080;25.550;2023-01-31T08:33:47;99286.72;;;2.45;70.39
37066;BME280;22981;43.080;25.550;2023-01-31T08:36:29;99296.91;;;2.52;70.41
37066;BME280;22981;43.080;25.550;2023-01-31T08:38:54;99292.77;;;2.58;70.34
37066;BME280;22981;43.080;25.550;2023-01-31T08:41:25;99295.72;;;2.63;70.24
37066;BME280;22981;43.080;25.550;2023-01-31T08:43:53;99308.58;;;2.70;70.20
37066;BME280;22981;43.080;25.550;2023-01-31T08:46:25;99306.06;;;2.72;70.13
37066;BME280;22981;43.080;25.550;2023-01-31T08:48:53;99309.19;;;2.76;70.12
37066;BME280;22981;43.080;25.550;2023-01-31T08:51:21;99307.53;;;2.79;69.97
37066;BME280;22981;43.080;25.550;2023-01-31T08:53:49;99315.58;;;2.86;70.01
37066;BME280;22981;43.080;25.550;2023-01-31T08:56:17;99317.88;;;2.89;69.77
37066;BME280;22981;43.080;25.550;2023-01-31T08:58:46;99317.88;;;2.89;69.77
37066;BME280;22981;43.080;25.550;2023-01-31T09:01:15;99319.19;;;2.93;69.79
37066;BME280;22981;43.080;25.550;2023-01-31T09:03:44;99311.00;;;3.07;69.64
37066;BME280;22981;43.080;25.550;2023-01-31T09:06:17;99311.00;;;3.07;69.64
37066;BME280;22981;43.080;25.550;2023-01-31T09:08:45;99302.42;;;3.28;69.37
37066;BME280;22981;43.080;25.550;2023-01-31T09:11:13;99304.39;;;3.53;69.02
37066;BME280;22981;43.080;25.550;2023-01-31T09:13:43;99304.41;;;3.67;68.74
37066;BME280;22981;43.080;25.550;2023-01-31T09:16:12;99300.69;;;3.76;68.50
37066;BME280;22981;43.080;25.550;2023-01-31T09:18:40;99308.31;;;3.75;68.30
37066;BME280;22981;43.080;25.550;2023-01-31T09:21:11;99305.98;;;3.76;68.28
37066;BME280;22981;43.080;25.550;2023-01-31T09:23:39;99305.16;;;3.76;68.06
37066;BME280;22981;43.080;25.550;2023-01-31T09:26:06;99298.42;;;3.73;67.94
37066;BME280;22981;43.080;25.550;2023-01-31T09:28:34;99306.40;;;3.69;67.93
37066;BME280;22981;43.080;25.550;2023-01-31T09:31:03;99298.49;;;3.65;67.94
37066;BME280;22981;43.080;25.550;2023-01-31T09:33:32;99292.73;;;3.62;67.99
37066;BME280;22981;43.080;25.550;2023-01-31T09:36:05;99299.50;;;3.64;68.06
37066;BME280;22981;43.080;25.550;2023-01-31T09:38:33;99292.97;;;3.71;67.91
37066;BME280;22981;43.080;25.550;2023-01-31T09:41:04;99288.58;;;3.82;67.66
37066;BME280;22981;43.080;25.550;2023-01-31T09:43:40;99282.77;;;3.83;67.47
37066;BME280;22981;43.080;25.550;2023-01-31T09:46:14;99290.56;;;3.80;67.52
37066;BME280;22981;43.080;25.550;2023-01-31T09:48:44;99279.55;;;3.72;67.54
37066;BME280;22981;43.080;25.550;2023-01-31T09:51:12;99281.44;;;3.64;67.67
37066;BME280;22981;43.080;25.550;2023-01-31T09:53:41;99287.00;;;3.54;67.75
37066;BME280;22981;43.080;25.550;2023-01-31T09:56:18;99284.70;;;3.51;67.97
37066;BME280;22981;43.080;25.550;2023-01-31T10:01:41;99298.31;;;3.48;68.11
37066;BME280;22981;43.080;25.550;2023-01-31T10:07:12;99287.19;;;3.53;67.94
37066;BME280;22981;43.080;25.550;2023-01-31T10:09:48;99286.14;;;3.58;67.77
37066;BME280;22981;43.080;25.550;2023-01-31T10:12:16;99284.78;;;3.62;67.63
37066;BME280;22981;43.080;25.550;2023-01-31T10:14:55;99282.64;;;3.61;67.60
37066;BME280;22981;43.080;25.550;2023-01-31T10:17:38;99277.16;;;3.63;67.71
37066;BME280;22981;43.080;25.550;2023-01-31T10:20:19;99268.87;;;3.66;67.73
37066;BME280;22981;43.080;25.550;2023-01-31T10:23:02;99262.21;;;3.70;67.80
37066;BME280;22981;43.080;25.550;2023-01-31T10:28:37;99265.68;;;3.70;67.76
37066;BME280;22981;43.080;25.550;2023-01-31T10:33:54;99259.45;;;3.63;68.02
37066;BME280;22981;43.080;25.550;2023-01-31T10:36:49;99259.48;;;3.59;68.01
37066;BME280;22981;43.080;25.550;2023-01-31T10:44:57;99256.44;;;3.51;68.53
37066;BME280;22981;43.080;25.550;2023-01-31T10:47:32;99252.31;;;3.49;68.69
37066;BME280;22981;43.080;25.550;2023-01-31T10:49:55;99250.64;;;3.52;68.77
37066;BME280;22981;43.080;25.550;2023-01-31T10:52:40;99252.78;;;3.53;68.71
37066;BME280;22981;43.080;25.550;2023-01-31T10:57:52;99251.27;;;3.54;68.75
37066;BME280;22981;43.080;25.550;2023-01-31T11:00:23;99247.98;;;3.52;68.77
37066;BME280;22981;43.080;25.550;2023-01-31T11:02:51;99248.49;;;3.51;68.80
37066;BME280;22981;43.080;25.550;2023-01-31T11:05:20;99247.33;;;3.50;68.82
37066;BME280;22981;43.080;25.550;2023-01-31T11:07:48;99251.80;;;3.49;68.86
37066;BME280;22981;43.080;25.550;2023-01-31T11:10:30;99246.20;;;3.48;68.92
37066;BME280;22981;43.080;25.550;2023-01-31T11:12:59;99244.88;;;3.48;68.99
37066;BME280;22981;43.080;25.550;2023-01-31T11:15:37;99241.22;;;3.49;68.98
37066;BME280;22981;43.080;25.550;2023-01-31T11:18:05;99240.20;;;3.50;69.08
37066;BME280;22981;43.080;25.550;2023-01-31T11:20:35;99238.06;;;3.50;69.10
37066;BME280;22981;43.080;25.550;2023-01-31T11:23:05;99237.40;;;3.52;69.17
37066;BME280;22981;43.080;25.550;2023-01-31T11:25:33;99237.87;;;3.56;69.18
37066;BME280;22981;43.080;25.550;2023-01-31T11:28:03;99236.63;;;3.62;69.07
37066;BME280;22981;43.080;25.550;2023-01-31T11:30:37;99230.63;;;3.68;68.96
37066;BME280;22981;43.080;25.550;2023-01-31T11:33:06;99226.94;;;3.73;68.72
37066;BME280;22981;43.080;25.550;2023-01-31T11:35:34;99229.03;;;3.78;68.63
37066;BME280;22981;43.080;25.550;2023-01-31T11:40:39;99226.73;;;4.19;68.18
37066;BME280;22981;43.080;25.550;2023-01-31T11:45:58;99208.48;;;5.36;66.54
37066;BME280;22981;43.080;25.550;2023-01-31T11:48:25;99207.59;;;5.85;65.39
37066;BME280;22981;43.080;25.550;2023-01-31T11:50:57;99208.81;;;5.99;64.77
37066;BME280;22981;43.080;25.550;2023-01-31T11:56:13;99215.67;;;5.98;64.10
37066;BME280;22981;43.080;25.550;2023-01-31T11:58:43;99201.69;;;5.72;64.17
37066;BME280;22981;43.080;25.550;2023-01-31T12:01:16;99205.11;;;5.48;64.36
37066;BME280;22981;43.080;25.550;2023-01-31T12:03:54;99209.55;;;5.31;64.66
37066;BME280;22981;43.080;25.550;2023-01-31T12:06:38;99212.53;;;5.21;64.84
37066;BME280;22981;43.080;25.550;2023-01-31T12:09:20;99210.00;;;5.13;64.64
37066;BME280;22981;43.080;25.550;2023-01-31T12:12:01;99213.81;;;5.03;64.73
37066;BME280;22981;43.080;25.550;2023-01-31T12:14:39;99213.19;;;5.01;64.80
37066;BME280;22981;43.080;25.550;2023-01-31T12:17:12;99208.45;;;4.97;64.79
37066;BME280;22981;43.080;25.550;2023-01-31T12:20:04;99174.91;;;4.68;65.01
37066;BME280;22981;43.080;25.550;2023-01-31T12:25:24;99222.77;;;4.81;65.13
37066;BME280;22981;43.080;25.550;2023-01-31T12:36:36;99233.86;;;4.70;65.11
37066;BME280;22981;43.080;25.550;2023-01-31T12:47:12;99232.34;;;4.35;65.54
37066;BME280;22981;43.080;25.550;2023-01-31T12:50:01;99231.68;;;4.48;65.68
37066;BME280;22981;43.080;25.550;2023-01-31T12:52:29;99233.15;;;4.50;65.58
37066;BME280;22981;43.080;25.550;2023-01-31T13:01:03;99234.68;;;4.34;66.02
37066;BME280;22981;43.080;25.550;2023-01-31T13:03:30;99232.99;;;4.37;66.17
37066;BME280;22981;43.080;25.550;2023-01-31T13:06:14;99237.59;;;4.39;66.20
37066;BME280;22981;43.080;25.550;2023-01-31T13:08:39;99238.72;;;4.41;66.35
37066;BME280;22981;43.080;25.550;2023-01-31T13:11:13;99235.59;;;4.41;66.46
37066;BME280;22981;43.080;25.550;2023-01-31T13:14:04;99238.50;;;4.46;66.52
37066;BME280;22981;43.080;25.550;2023-01-31T13:16:36;99246.06;;;4.49;66.45
37066;BME280;22981;43.080;25.550;2023-01-31T13:19:05;99250.94;;;4.46;66.53
37066;BME280;22981;43.080;25.550;2023-01-31T13:21:40;99252.17;;;4.39;66.81
37066;BME280;22981;43.080;25.550;2023-01-31T13:24:19;99253.42;;;4.33;67.20
37066;BME280;22981;43.080;25.550;2023-01-31T13:26:58;99254.34;;;4.25;67.49
37066;BME280;22981;43.080;25.550;2023-01-31T13:30:00;99256.53;;;4.21;67.74
37066;BME280;22981;43.080;25.550;2023-01-31T13:34:51;99256.38;;;4.19;68.14
37066;BME280;22981;43.080;25.550;2023-01-31T13:37:20;99266.98;;;4.19;68.24
37066;BME280;22981;43.080;25.550;2023-01-31T13:39:55;99270.95;;;4.19;68.20
37066;BME280;22981;43.080;25.550;2023-01-31T13:42:19;99271.66;;;4.17;68.15
37066;BME280;22981;43.080;25.550;2023-01-31T13:44:47;99274.81;;;4.16;68.16
37066;BME280;22981;43.080;25.550;2023-01-31T13:47:23;99277.95;;;4.31;68.12
37066;BME280;22981;43.080;25.550;2023-01-31T13:52:30;99275.47;;;4.44;67.98
37066;BME280;22981;43.080;25.550;2023-01-31T13:55:02;99281.23;;;4.47;68.03
37066;BME280;22981;43.080;25.550;2023-01-31T13:57:39;99276.89;;;4.50;68.07
37066;BME280;22981;43.080;25.550;2023-01-31T14:00:07;99284.64;;;4.52;68.10
37066;BME280;22981;43.080;25.550;2023-01-31T14:02:35;99281.03;;;4.49;68.18
37066;BME280;22981;43.080;25.550;2023-01-31T14:11:00;99277.00;;;4.53;68.31
37066;BME280;22981;43.080;25.550;2023-01-31T14:16:01;99283.30;;;4.41;68.30
37066;BME280;22981;43.080;25.550;2023-01-31T14:18:40;99290.41;;;4.41;68.32
37066;BME280;22981;43.080;25.550;2023-01-31T14:23:59;99297.75;;;4.49;67.99
37066;BME280;22981;43.080;25.550;2023-01-31T14:29:23;99305.70;;;4.49;68.03
37066;BME280;22981;43.080;25.550;2023-01-31T14:31:47;99296.94;;;4.49;68.12
37066;BME280;22981;43.080;25.550;2023-01-31T14:34:20;99298.87;;;4.55;68.29
37066;BME280;22981;43.080;25.550;2023-01-31T14:42:40;99310.05;;;4.76;68.21
37066;BME280;22981;43.080;25.550;2023-01-31T14:45:15;99306.57;;;4.75;68.18
37066;BME280;22981;43.080;25.550;2023-01-31T14:48:19;99314.58;;;4.71;68.30
37066;BME280;22981;43.080;25.550;2023-01-31T14:53:49;99321.41;;;4.55;68.71
37066;BME280;22981;43.080;25.550;2023-01-31T14:59:14;99335.92;;;4.44;69.07
37066;BME280;22981;43.080;25.550;2023-01-31T15:01:35;99335.85;;;4.38;69.15
37066;BME280;22981;43.080;25.550;2023-01-31T15:04:04;99345.80;;;4.36;69.26
37066;BME280;22981;43.080;25.550;2023-01-31T15:06:37;99348.49;;;4.32;69.36